sensor_id;sensor_type;location;lat;lon;timestamp;P1;durP1;ratioP1;P2;durP2;ratioP2
16665;SDS011;8446;50.998;6.250;2023-04-15T00:00:17;8.48;;;4.35;;
16665;SDS011;8446;50.998;6.250;2023-04-15T00:02:44;5.93;;;3.47;;
16665;SDS011;8446;50.998;6.250;2023-04-15T00:05:12;10.48;;;3.80;;
16665;SDS011;8446;50.998;6.250;2023-04-15T00:07:39;7.95;;;3.80;;
16665;SDS011;8446;50.998;6.250;2023-04-15T00:10:06;5.28;;;3.78;;
16665;SDS011;8446;50.998;6.250;2023-04-15T00:12:33;5.90;;;3.38;;
16665;SDS011;8446;50.998;6.250;2023-04-15T00:15:02;8.70;;;3.30;;
16665;SDS011;8446;50.998;6.250;2023-04-15T00:17:29;4.20;;;3.10;;
16665;SDS011;8446;50.998;6.250;2023-04-15T00:19:56;5.93;;;3.25;;
16665;SDS011;8446;50.998;6.250;2023-04-15T00:22:23;6.20;;;3.00;;
16665;SDS011;8446;50.998;6.250;2023-04-15T00:24:51;4.10;;;2.95;;
16665;SDS011;8446;50.998;6.250;2023-04-15T00:27:18;5.60;;;2.72;;
16665;SDS011;8446;50.998;6.250;2023-04-15T00:29:45;5.43;;;2.90;;
16665;SDS011;8446;50.998;6.250;2023-04-15T00:32:13;7.75;;;3.30;;
16665;SDS011;8446;50.998;6.250;2023-04-15T00:34:40;13.32;;;3.50;;
16665;SDS011;8446;50.998;6.250;2023-04-15T00:37:07;6.72;;;3.63;;
16665;SDS011;8446;50.998;6.250;2023-04-15T00:39:34;5.00;;;3.00;;
16665;SDS011;8446;50.998;6.250;2023-04-15T00:42:01;3.50;;;3.03;;
16665;SDS011;8446;50.998;6.250;2023-04-15T00:44:30;3.92;;;2.90;;
16665;SDS011;8446;50.998;6.250;2023-04-15T00:47:00;6.03;;;3.22;;
16665;SDS011;8446;50.998;6.250;2023-04-15T00:49:28;3.38;;;2.67;;
16665;SDS011;8446;50.998;6.250;2023-04-15T00:51:56;14.40;;;3.20;;
16665;SDS011;8446;50.998;6.250;2023-04-15T00:54:23;6.32;;;3.35;;
16665;SDS011;8446;50.998;6.250;2023-04-15T00:56:50;4.88;;;3.45;;
16665;SDS011;8446;50.998;6.250;2023-04-15T00:59:17;3.58;;;2.72;;
16665;SDS011;8446;50.998;6.250;2023-04-15T01:01:45;7.40;;;3.95;;
16665;SDS011;8446;50.998;6.250;2023-04-15T01:04:12;6.72;;;4.05;;
16665;SDS011;8446;50.998;6.250;2023-04-15T01:06:40;8.90;;;3.75;;
16665;SDS011;8446;50.998;6.250;2023-04-15T01:09:07;3.85;;;3.40;;
16665;SDS011;8446;50.998;6.250;2023-04-15T01:11:35;5.50;;;3.55;;
16665;SDS011;8446;50.998;6.250;2023-04-15T01:14:02;5.65;;;3.45;;
16665;SDS011;8446;50.998;6.250;2023-04-15T01:16:30;5.70;;;3.40;;
16665;SDS011;8446;50.998;6.250;2023-04-15T01:18:56;10.32;;;3.28;;
16665;SDS011;8446;50.998;6.250;2023-04-15T01:21:23;10.52;;;3.38;;
16665;SDS011;8446;50.998;6.250;2023-04-15T01:23:52;6.32;;;3.05;;
16665;SDS011;8446;50.998;6.250;2023-04-15T01:26:23;7.28;;;3.13;;
16665;SDS011;8446;50.998;6.250;2023-04-15T01:28:51;8.52;;;4.03;;
16665;SDS011;8446;50.998;6.250;2023-04-15T01:31:18;10.45;;;4.20;;
16665;SDS011;8446;50.998;6.250;2023-04-15T01:33:44;5.18;;;3.13;;
16665;SDS011;8446;50.998;6.250;2023-04-15T01:36:11;7.15;;;3.10;;
16665;SDS011;8446;50.998;6.250;2023-04-15T01:38:38;6.72;;;3.45;;
16665;SDS011;8446;50.998;6.250;2023-04-15T01:41:05;4.68;;;3.00;;
16665;SDS011;8446;50.998;6.250;2023-04-15T01:43:34;7.55;;;2.95;;
16665;SDS011;8446;50.998;6.250;2023-04-15T01:46:01;6.13;;;2.78;;
16665;SDS011;8446;50.998;6.250;2023-04-15T01:48:28;4.78;;;2.70;;
16665;SDS011;8446;50.998;6.250;2023-04-15T01:50:55;3.15;;;2.80;;
16665;SDS011;8446;50.998;6.250;2023-04-15T01:53:23;6.50;;;3.30;;
16665;SDS011;8446;50.998;6.250;2023-04-15T01:55:50;5.82;;;3.53;;
16665;SDS011;8446;50.998;6.250;2023-04-15T01:58:17;5.75;;;3.80;;
16665;SDS011;8446;50.998;6.250;2023-04-15T02:00:46;5.60;;;3.30;;
16665;SDS011;8446;50.998;6.250;2023-04-15T02:03:12;8.50;;;3.85;;
16665;SDS011;8446;50.998;6.250;2023-04-15T02:05:39;6.60;;;4.65;;
16665;SDS011;8446;50.998;6.250;2023-04-15T02:08:06;9.65;;;4.35;;
16665;SDS011;8446;50.998;6.250;2023-04-15T02:10:34;14.63;;;5.32;;
16665;SDS011;8446;50.998;6.250;2023-04-15T02:13:01;5.75;;;3.80;;
16665;SDS011;8446;50.998;6.250;2023-04-15T02:15:27;6.40;;;3.83;;
16665;SDS011;8446;50.998;6.250;2023-04-15T02:17:56;8.35;;;3.85;;
16665;SDS011;8446;50.998;6.250;2023-04-15T02:20:24;11.85;;;4.07;;
16665;SDS011;8446;50.998;6.250;2023-04-15T02:22:51;10.63;;;3.80;;
16665;SDS011;8446;50.998;6.250;2023-04-15T02:25:18;7.50;;;4.60;;
16665;SDS011;8446;50.998;6.250;2023-04-15T02:27:45;11.35;;;3.55;;
16665;SDS011;8446;50.998;6.250;2023-04-15T02:30:12;4.07;;;3.40;;
16665;SDS011;8446;50.998;6.250;2023-04-15T02:32:39;5.53;;;3.90;;
16665;SDS011;8446;50.998;6.250;2023-04-15T02:35:10;8.90;;;4.00;;
16665;SDS011;8446;50.998;6.250;2023-04-15T02:37:37;6.65;;;3.95;;
16665;SDS011;8446;50.998;6.250;2023-04-15T02:40:07;5.35;;;3.50;;
16665;SDS011;8446;50.998;6.250;2023-04-15T02:42:36;10.90;;;3.80;;
16665;SDS011;8446;50.998;6.250;2023-04-15T02:45:03;12.32;;;3.63;;
16665;SDS011;8446;50.998;6.250;2023-04-15T02:47:31;4.40;;;3.83;;
16665;SDS011;8446;50.998;6.250;2023-04-15T02:49:58;5.07;;;3.00;;
16665;SDS011;8446;50.998;6.250;2023-04-15T02:52:27;12.25;;;3.55;;
16665;SDS011;8446;50.998;6.250;2023-04-15T02:54:54;7.82;;;3.97;;
16665;SDS011;8446;50.998;6.250;2023-04-15T02:57:24;9.50;;;4.72;;
16665;SDS011;8446;50.998;6.250;2023-04-15T02:59:52;5.75;;;3.50;;
16665;SDS011;8446;50.998;6.250;2023-04-15T03:02:19;6.10;;;4.13;;
16665;SDS011;8446;50.998;6.250;2023-04-15T03:04:46;8.60;;;4.40;;
16665;SDS011;8446;50.998;6.250;2023-04-15T03:07:12;5.60;;;3.60;;
16665;SDS011;8446;50.998;6.250;2023-04-15T03:09:41;7.25;;;3.70;;
16665;SDS011;8446;50.998;6.250;2023-04-15T03:12:08;8.50;;;4.53;;
16665;SDS011;8446;50.998;6.250;2023-04-15T03:14:35;5.72;;;3.35;;
16665;SDS011;8446;50.998;6.250;2023-04-15T03:17:02;4.03;;;3.28;;
16665;SDS011;8446;50.998;6.250;2023-04-15T03:19:28;8.02;;;4.30;;
16665;SDS011;8446;50.998;6.250;2023-04-15T03:21:56;12.60;;;4.50;;
16665;SDS011;8446;50.998;6.250;2023-04-15T03:24:22;7.95;;;3.90;;
16665;SDS011;8446;50.998;6.250;2023-04-15T03:26:51;5.22;;;3.92;;
16665;SDS011;8446;50.998;6.250;2023-04-15T03:29:19;5.85;;;3.53;;
16665;SDS011;8446;50.998;6.250;2023-04-15T03:31:45;7.47;;;4.05;;
16665;SDS011;8446;50.998;6.250;2023-04-15T03:34:12;7.47;;;3.80;;
16665;SDS011;8446;50.998;6.250;2023-04-15T03:36:39;5.50;;;3.80;;
16665;SDS011;8446;50.998;6.250;2023-04-15T03:39:06;7.57;;;3.70;;
16665;SDS011;8446;50.998;6.250;2023-04-15T03:41:33;5.30;;;3.80;;
16665;SDS011;8446;50.998;6.250;2023-04-15T03:44:01;7.05;;;3.72;;
16665;SDS011;8446;50.998;6.250;2023-04-15T03:46:28;9.88;;;3.58;;
16665;SDS011;8446;50.998;6.250;2023-04-15T03:48:55;5.18;;;3.20;;
16665;SDS011;8446;50.998;6.250;2023-04-15T03:51:22;4.53;;;3.55;;
16665;SDS011;8446;50.998;6.250;2023-04-15T03:53:48;5.28;;;3.85;;
16665;SDS011;8446;50.998;6.250;2023-04-15T03:56:15;13.40;;;4.22;;
16665;SDS011;8446;50.998;6.250;2023-04-15T03:58:42;5.15;;;3.72;;
16665;SDS011;8446;50.998;6.250;2023-04-15T04:01:10;6.53;;;3.75;;
16665;SDS011;8446;50.998;6.250;2023-04-15T04:03:37;6.00;;;3.63;;
16665;SDS011;8446;50.998;6.250;2023-04-15T04:06:04;10.43;;;3.25;;
16665;SDS011;8446;50.998;6.250;2023-04-15T04:08:32;5.00;;;3.45;;
16665;SDS011;8446;50.998;6.250;2023-04-15T04:10:58;4.75;;;3.58;;
16665;SDS011;8446;50.998;6.250;2023-04-15T04:13:25;4.70;;;3.38;;
16665;SDS011;8446;50.998;6.250;2023-04-15T04:15:52;4.53;;;3.30;;
16665;SDS011;8446;50.998;6.250;2023-04-15T04:18:20;6.45;;;3.42;;
16665;SDS011;8446;50.998;6.250;2023-04-15T04:20:47;6.88;;;4.00;;
16665;SDS011;8446;50.998;6.250;2023-04-15T04:23:13;4.07;;;3.10;;
16665;SDS011;8446;50.998;6.250;2023-04-15T04:25:40;4.00;;;2.88;;
16665;SDS011;8446;50.998;6.250;2023-04-15T04:28:07;6.28;;;3.38;;
16665;SDS011;8446;50.998;6.250;2023-04-15T04:30:35;5.20;;;3.00;;
16665;SDS011;8446;50.998;6.250;2023-04-15T04:33:02;4.30;;;2.83;;
16665;SDS011;8446;50.998;6.250;2023-04-15T04:35:30;10.23;;;3.33;;
16665;SDS011;8446;50.998;6.250;2023-04-15T04:37:59;6.75;;;4.05;;
16665;SDS011;8446;50.998;6.250;2023-04-15T04:40:29;4.47;;;3.25;;
16665;SDS011;8446;50.998;6.250;2023-04-15T04:42:56;6.63;;;3.78;;
16665;SDS011;8446;50.998;6.250;2023-04-15T04:45:22;5.55;;;3.90;;
16665;SDS011;8446;50.998;6.250;2023-04-15T04:47:49;5.40;;;3.50;;
16665;SDS011;8446;50.998;6.250;2023-04-15T04:50:16;5.32;;;3.20;;
16665;SDS011;8446;50.998;6.250;2023-04-15T04:52:44;6.88;;;4.38;;
16665;SDS011;8446;50.998;6.250;2023-04-15T04:55:11;5.22;;;4.15;;
16665;SDS011;8446;50.998;6.250;2023-04-15T04:57:38;11.05;;;4.35;;
16665;SDS011;8446;50.998;6.250;2023-04-15T05:00:05;5.28;;;3.80;;
16665;SDS011;8446;50.998;6.250;2023-04-15T05:02:33;13.63;;;3.90;;
16665;SDS011;8446;50.998;6.250;2023-04-15T05:05:00;10.20;;;3.97;;
16665;SDS011;8446;50.998;6.250;2023-04-15T05:07:27;9.00;;;4.82;;
16665;SDS011;8446;50.998;6.250;2023-04-15T05:09:55;6.10;;;3.45;;
16665;SDS011;8446;50.998;6.250;2023-04-15T05:12:22;12.32;;;3.80;;
16665;SDS011;8446;50.998;6.250;2023-04-15T05:14:49;5.00;;;3.70;;
16665;SDS011;8446;50.998;6.250;2023-04-15T05:17:16;9.35;;;4.60;;
16665;SDS011;8446;50.998;6.250;2023-04-15T05:19:43;4.32;;;3.85;;
16665;SDS011;8446;50.998;6.250;2023-04-15T05:22:09;12.48;;;4.50;;
16665;SDS011;8446;50.998;6.250;2023-04-15T05:24:36;12.05;;;5.00;;
16665;SDS011;8446;50.998;6.250;2023-04-15T05:27:04;6.32;;;3.85;;
16665;SDS011;8446;50.998;6.250;2023-04-15T05:29:32;4.70;;;3.80;;
16665;SDS011;8446;50.998;6.250;2023-04-15T05:31:59;7.45;;;4.70;;
16665;SDS011;8446;50.998;6.250;2023-04-15T05:34:26;10.02;;;5.40;;
16665;SDS011;8446;50.998;6.250;2023-04-15T05:36:53;6.47;;;4.50;;
16665;SDS011;8446;50.998;6.250;2023-04-15T05:39:19;12.90;;;6.03;;
16665;SDS011;8446;50.998;6.250;2023-04-15T05:41:46;14.25;;;5.28;;
16665;SDS011;8446;50.998;6.250;2023-04-15T05:44:14;8.05;;;5.00;;
16665;SDS011;8446;50.998;6.250;2023-04-15T05:46:41;7.55;;;5.00;;
16665;SDS011;8446;50.998;6.250;2023-04-15T05:49:08;15.05;;;6.22;;
16665;SDS011;8446;50.998;6.250;2023-04-15T05:51:35;10.57;;;4.70;;
16665;SDS011;8446;50.998;6.250;2023-04-15T05:54:01;12.18;;;5.32;;
16665;SDS011;8446;50.998;6.250;2023-04-15T05:56:28;11.18;;;5.65;;
16665;SDS011;8446;50.998;6.250;2023-04-15T05:58:55;11.52;;;5.35;;
16665;SDS011;8446;50.998;6.250;2023-04-15T06:01:23;11.98;;;4.63;;
16665;SDS011;8446;50.998;6.250;2023-04-15T06:03:50;10.52;;;5.15;;
16665;SDS011;8446;50.998;6.250;2023-04-15T06:06:17;15.43;;;5.53;;
16665;SDS011;8446;50.998;6.250;2023-04-15T06:08:44;21.40;;;5.82;;
16665;SDS011;8446;50.998;6.250;2023-04-15T06:11:11;15.25;;;6.15;;
16665;SDS011;8446;50.998;6.250;2023-04-15T06:13:38;7.75;;;5.50;;
16665;SDS011;8446;50.998;6.250;2023-04-15T06:16:04;8.50;;;5.95;;
16665;SDS011;8446;50.998;6.250;2023-04-15T06:18:33;11.15;;;6.97;;
16665;SDS011;8446;50.998;6.250;2023-04-15T06:21:00;15.10;;;6.75;;
16665;SDS011;8446;50.998;6.250;2023-04-15T06:23:27;13.00;;;7.15;;
16665;SDS011;8446;50.998;6.250;2023-04-15T06:25:53;12.73;;;6.85;;
16665;SDS011;8446;50.998;6.250;2023-04-15T06:28:20;15.38;;;6.80;;
16665;SDS011;8446;50.998;6.250;2023-04-15T06:30:47;10.38;;;6.47;;
16665;SDS011;8446;50.998;6.250;2023-04-15T06:33:14;10.80;;;8.10;;
16665;SDS011;8446;50.998;6.250;2023-04-15T06:35:42;13.82;;;7.10;;
16665;SDS011;8446;50.998;6.250;2023-04-15T06:38:09;17.48;;;7.20;;
16665;SDS011;8446;50.998;6.250;2023-04-15T06:40:36;11.10;;;7.55;;
16665;SDS011;8446;50.998;6.250;2023-04-15T06:43:02;12.93;;;7.47;;
16665;SDS011;8446;50.998;6.250;2023-04-15T06:45:29;12.20;;;7.60;;
16665;SDS011;8446;50.998;6.250;2023-04-15T06:47:56;16.40;;;8.20;;
16665;SDS011;8446;50.998;6.250;2023-04-15T06:50:23;10.25;;;7.72;;
16665;SDS011;8446;50.998;6.250;2023-04-15T06:52:52;16.52;;;7.72;;
16665;SDS011;8446;50.998;6.250;2023-04-15T06:55:19;10.33;;;6.57;;
16665;SDS011;8446;50.998;6.250;2023-04-15T06:57:46;10.20;;;6.77;;
16665;SDS011;8446;50.998;6.250;2023-04-15T07:00:13;10.87;;;6.60;;
16665;SDS011;8446;50.998;6.250;2023-04-15T07:02:40;9.53;;;7.10;;
16665;SDS011;8446;50.998;6.250;2023-04-15T07:05:07;11.13;;;6.63;;
16665;SDS011;8446;50.998;6.250;2023-04-15T07:07:34;13.87;;;6.80;;
16665;SDS011;8446;50.998;6.250;2023-04-15T07:10:03;14.67;;;7.10;;
16665;SDS011;8446;50.998;6.250;2023-04-15T07:12:30;15.17;;;7.87;;
16665;SDS011;8446;50.998;6.250;2023-04-15T07:14:57;11.50;;;7.13;;
16665;SDS011;8446;50.998;6.250;2023-04-15T07:17:23;11.70;;;6.87;;
16665;SDS011;8446;50.998;6.250;2023-04-15T07:19:50;15.83;;;7.70;;
16665;SDS011;8446;50.998;6.250;2023-04-15T07:22:17;14.03;;;8.30;;
16665;SDS011;8446;50.998;6.250;2023-04-15T07:24:43;12.60;;;7.80;;
16665;SDS011;8446;50.998;6.250;2023-04-15T07:27:12;12.63;;;6.93;;
16665;SDS011;8446;50.998;6.250;2023-04-15T07:29:39;9.77;;;7.50;;
16665;SDS011;8446;50.998;6.250;2023-04-15T07:32:06;15.60;;;7.33;;
16665;SDS011;8446;50.998;6.250;2023-04-15T07:34:34;12.43;;;8.00;;
16665;SDS011;8446;50.998;6.250;2023-04-15T07:37:02;15.80;;;8.70;;
16665;SDS011;8446;50.998;6.250;2023-04-15T07:39:28;15.90;;;9.67;;
16665;SDS011;8446;50.998;6.250;2023-04-15T07:41:55;10.57;;;7.20;;
16665;SDS011;8446;50.998;6.250;2023-04-15T07:44:24;15.87;;;8.37;;
16665;SDS011;8446;50.998;6.250;2023-04-15T07:46:51;12.20;;;8.70;;
16665;SDS011;8446;50.998;6.250;2023-04-15T07:49:18;11.80;;;8.70;;
16665;SDS011;8446;50.998;6.250;2023-04-15T07:51:45;14.27;;;8.53;;
16665;SDS011;8446;50.998;6.250;2023-04-15T07:54:12;14.50;;;8.30;;
16665;SDS011;8446;50.998;6.250;2023-04-15T07:56:39;22.93;;;8.53;;
16665;SDS011;8446;50.998;6.250;2023-04-15T07:59:06;10.83;;;8.20;;
16665;SDS011;8446;50.998;6.250;2023-04-15T08:01:35;10.20;;;7.97;;
16665;SDS011;8446;50.998;6.250;2023-04-15T08:04:03;17.43;;;7.73;;
16665;SDS011;8446;50.998;6.250;2023-04-15T08:06:30;15.63;;;7.27;;
16665;SDS011;8446;50.998;6.250;2023-04-15T08:08:57;17.00;;;7.10;;
16665;SDS011;8446;50.998;6.250;2023-04-15T08:11:24;11.17;;;7.03;;
16665;SDS011;8446;50.998;6.250;2023-04-15T08:13:51;10.70;;;6.93;;
16665;SDS011;8446;50.998;6.250;2023-04-15T08:16:19;7.80;;;6.53;;
16665;SDS011;8446;50.998;6.250;2023-04-15T08:18:49;11.23;;;7.23;;
16665;SDS011;8446;50.998;6.250;2023-04-15T08:21:16;9.10;;;6.27;;
16665;SDS011;8446;50.998;6.250;2023-04-15T08:23:44;10.07;;;5.70;;
16665;SDS011;8446;50.998;6.250;2023-04-15T08:26:15;7.90;;;5.50;;
16665;SDS011;8446;50.998;6.250;2023-04-15T08:28:42;7.50;;;5.33;;
16665;SDS011;8446;50.998;6.250;2023-04-15T08:31:10;11.17;;;5.23;;
16665;SDS011;8446;50.998;6.250;2023-04-15T08:33:37;6.93;;;5.00;;
16665;SDS011;8446;50.998;6.250;2023-04-15T08:36:05;8.97;;;5.27;;
16665;SDS011;8446;50.998;6.250;2023-04-15T08:38:33;6.07;;;5.40;;
16665;SDS011;8446;50.998;6.250;2023-04-15T08:41:01;6.23;;;4.93;;
16665;SDS011;8446;50.998;6.250;2023-04-15T08:43:32;8.37;;;5.00;;
16665;SDS011;8446;50.998;6.250;2023-04-15T08:46:00;6.47;;;4.90;;
16665;SDS011;8446;50.998;6.250;2023-04-15T08:48:31;7.30;;;5.27;;
16665;SDS011;8446;50.998;6.250;2023-04-15T08:50:58;7.00;;;4.80;;
16665;SDS011;8446;50.998;6.250;2023-04-15T08:53:28;10.63;;;5.20;;
16665;SDS011;8446;50.998;6.250;2023-04-15T08:55:56;9.70;;;5.53;;
16665;SDS011;8446;50.998;6.250;2023-04-15T08:58:25;6.47;;;5.47;;
16665;SDS011;8446;50.998;6.250;2023-04-15T09:00:52;7.70;;;5.90;;
16665;SDS011;8446;50.998;6.250;2023-04-15T09:03:20;9.10;;;6.37;;
16665;SDS011;8446;50.998;6.250;2023-04-15T09:05:47;9.60;;;5.27;;
16665;SDS011;8446;50.998;6.250;2023-04-15T09:08:15;10.17;;;5.73;;
16665;SDS011;8446;50.998;6.250;2023-04-15T09:10:44;7.73;;;5.07;;
16665;SDS011;8446;50.998;6.250;2023-04-15T09:13:10;8.77;;;5.23;;
16665;SDS011;8446;50.998;6.250;2023-04-15T09:15:37;10.43;;;5.70;;
16665;SDS011;8446;50.998;6.250;2023-04-15T09:18:08;10.10;;;5.80;;
16665;SDS011;8446;50.998;6.250;2023-04-15T09:20:38;9.20;;;5.80;;
16665;SDS011;8446;50.998;6.250;2023-04-15T09:23:13;10.17;;;7.77;;
16665;SDS011;8446;50.998;6.250;2023-04-15T09:25:41;13.50;;;6.90;;
16665;SDS011;8446;50.998;6.250;2023-04-15T09:28:10;9.10;;;6.33;;
16665;SDS011;8446;50.998;6.250;2023-04-15T09:30:37;8.53;;;6.33;;
16665;SDS011;8446;50.998;6.250;2023-04-15T09:33:03;11.40;;;6.33;;
16665;SDS011;8446;50.998;6.250;2023-04-15T09:35:32;7.20;;;5.97;;
16665;SDS011;8446;50.998;6.250;2023-04-15T09:38:01;10.03;;;5.90;;
16665;SDS011;8446;50.998;6.250;2023-04-15T09:40:32;9.10;;;6.57;;
16665;SDS011;8446;50.998;6.250;2023-04-15T09:43:02;8.37;;;5.67;;
16665;SDS011;8446;50.998;6.250;2023-04-15T09:45:30;9.77;;;6.50;;
16665;SDS011;8446;50.998;6.250;2023-04-15T09:47:58;19.13;;;5.70;;
16665;SDS011;8446;50.998;6.250;2023-04-15T09:50:39;8.80;;;5.33;;
16665;SDS011;8446;50.998;6.250;2023-04-15T09:53:07;12.63;;;5.57;;
16665;SDS011;8446;50.998;6.250;2023-04-15T09:55:35;8.70;;;5.73;;
16665;SDS011;8446;50.998;6.250;2023-04-15T09:58:04;10.10;;;4.80;;
16665;SDS011;8446;50.998;6.250;2023-04-15T10:00:34;7.60;;;5.10;;
16665;SDS011;8446;50.998;6.250;2023-04-15T10:03:02;5.50;;;4.40;;
16665;SDS011;8446;50.998;6.250;2023-04-15T10:05:31;6.83;;;4.83;;
16665;SDS011;8446;50.998;6.250;2023-04-15T10:07:59;9.13;;;4.60;;
16665;SDS011;8446;50.998;6.250;2023-04-15T10:10:26;5.17;;;4.20;;
16665;SDS011;8446;50.998;6.250;2023-04-15T10:12:53;6.90;;;4.60;;
16665;SDS011;8446;50.998;6.250;2023-04-15T10:15:22;4.97;;;3.70;;
16665;SDS011;8446;50.998;6.250;2023-04-15T10:17:50;4.27;;;3.23;;
16665;SDS011;8446;50.998;6.250;2023-04-15T10:20:20;7.20;;;3.50;;
16665;SDS011;8446;50.998;6.250;2023-04-15T10:22:48;6.63;;;4.00;;
16665;SDS011;8446;50.998;6.250;2023-04-15T10:25:16;5.90;;;4.30;;
16665;SDS011;8446;50.998;6.250;2023-04-15T10:27:44;6.47;;;4.10;;
16665;SDS011;8446;50.998;6.250;2023-04-15T10:30:12;4.77;;;3.93;;
16665;SDS011;8446;50.998;6.250;2023-04-15T10:32:41;4.63;;;3.80;;
16665;SDS011;8446;50.998;6.250;2023-04-15T10:35:09;3.40;;;3.07;;
16665;SDS011;8446;50.998;6.250;2023-04-15T10:37:37;4.50;;;2.70;;
16665;SDS011;8446;50.998;6.250;2023-04-15T10:40:22;6.70;;;2.87;;
16665;SDS011;8446;50.998;6.250;2023-04-15T10:42:51;2.53;;;2.17;;
16665;SDS011;8446;50.998;6.250;2023-04-15T10:45:18;3.77;;;2.70;;
16665;SDS011;8446;50.998;6.250;2023-04-15T10:47:46;4.83;;;3.13;;
16665;SDS011;8446;50.998;6.250;2023-04-15T10:50:17;12.17;;;3.90;;
16665;SDS011;8446;50.998;6.250;2023-04-15T10:52:44;4.57;;;3.57;;
16665;SDS011;8446;50.998;6.250;2023-04-15T10:55:12;3.60;;;3.30;;
16665;SDS011;8446;50.998;6.250;2023-04-15T10:57:40;4.67;;;3.13;;
16665;SDS011;8446;50.998;6.250;2023-04-15T11:00:08;5.17;;;2.77;;
16665;SDS011;8446;50.998;6.250;2023-04-15T11:02:38;4.17;;;3.43;;
16665;SDS011;8446;50.998;6.250;2023-04-15T11:05:13;6.67;;;4.20;;
16665;SDS011;8446;50.998;6.250;2023-04-15T11:07:48;5.20;;;3.40;;
16665;SDS011;8446;50.998;6.250;2023-04-15T11:13:23;6.00;;;3.00;;
16665;SDS011;8446;50.998;6.250;2023-04-15T11:16:00;2.40;;;2.20;;
16665;SDS011;8446;50.998;6.250;2023-04-15T11:18:31;2.77;;;2.47;;
16665;SDS011;8446;50.998;6.250;2023-04-15T11:21:01;3.50;;;2.57;;
16665;SDS011;8446;50.998;6.250;2023-04-15T11:23:30;3.53;;;2.50;;
16665;SDS011;8446;50.998;6.250;2023-04-15T11:25:59;3.53;;;2.73;;
16665;SDS011;8446;50.998;6.250;2023-04-15T11:28:26;3.83;;;3.23;;
16665;SDS011;8446;50.998;6.250;2023-04-15T11:30:54;3.77;;;2.50;;
16665;SDS011;8446;50.998;6.250;2023-04-15T11:33:22;3.80;;;3.20;;
16665;SDS011;8446;50.998;6.250;2023-04-15T11:35:50;3.37;;;2.97;;
16665;SDS011;8446;50.998;6.250;2023-04-15T11:38:20;3.13;;;2.83;;
16665;SDS011;8446;50.998;6.250;2023-04-15T11:40:47;4.73;;;3.23;;
16665;SDS011;8446;50.998;6.250;2023-04-15T11:43:15;4.50;;;3.70;;
16665;SDS011;8446;50.998;6.250;2023-04-15T11:45:48;5.10;;;3.40;;
16665;SDS011;8446;50.998;6.250;2023-04-15T11:48:17;4.63;;;3.80;;
16665;SDS011;8446;50.998;6.250;2023-04-15T11:50:44;4.70;;;3.60;;
16665;SDS011;8446;50.998;6.250;2023-04-15T11:53:12;3.23;;;2.77;;
16665;SDS011;8446;50.998;6.250;2023-04-15T11:55:43;3.10;;;2.80;;
16665;SDS011;8446;50.998;6.250;2023-04-15T11:58:12;3.53;;;2.53;;
16665;SDS011;8446;50.998;6.250;2023-04-15T12:00:45;2.77;;;2.40;;
16665;SDS011;8446;50.998;6.250;2023-04-15T12:03:15;3.77;;;2.90;;
16665;SDS011;8446;50.998;6.250;2023-04-15T12:11:36;4.33;;;3.10;;
16665;SDS011;8446;50.998;6.250;2023-04-15T12:14:11;3.70;;;2.90;;
16665;SDS011;8446;50.998;6.250;2023-04-15T12:16:41;3.63;;;3.13;;
16665;SDS011;8446;50.998;6.250;2023-04-15T12:19:10;4.50;;;3.47;;
16665;SDS011;8446;50.998;6.250;2023-04-15T12:21:39;5.37;;;3.37;;
16665;SDS011;8446;50.998;6.250;2023-04-15T12:24:07;3.53;;;2.73;;
16665;SDS011;8446;50.998;6.250;2023-04-15T12:26:37;4.80;;;2.70;;
16665;SDS011;8446;50.998;6.250;2023-04-15T12:29:10;4.40;;;3.00;;
16665;SDS011;8446;50.998;6.250;2023-04-15T12:31:45;4.70;;;2.67;;
16665;SDS011;8446;50.998;6.250;2023-04-15T12:34:14;3.63;;;2.87;;
16665;SDS011;8446;50.998;6.250;2023-04-15T12:36:41;3.00;;;2.70;;
16665;SDS011;8446;50.998;6.250;2023-04-15T12:39:08;3.43;;;2.43;;
16665;SDS011;8446;50.998;6.250;2023-04-15T12:41:37;2.77;;;2.47;;
16665;SDS011;8446;50.998;6.250;2023-04-15T12:44:03;2.63;;;2.23;;
16665;SDS011;8446;50.998;6.250;2023-04-15T12:46:30;3.90;;;2.70;;
16665;SDS011;8446;50.998;6.250;2023-04-15T12:48:57;4.07;;;2.30;;
16665;SDS011;8446;50.998;6.250;2023-04-15T12:51:24;2.67;;;2.47;;
16665;SDS011;8446;50.998;6.250;2023-04-15T12:53:51;2.33;;;2.13;;
16665;SDS011;8446;50.998;6.250;2023-04-15T12:56:18;3.03;;;2.10;;
16665;SDS011;8446;50.998;6.250;2023-04-15T12:58:46;1.83;;;1.63;;
16665;SDS011;8446;50.998;6.250;2023-04-15T13:01:13;2.70;;;2.40;;
16665;SDS011;8446;50.998;6.250;2023-04-15T13:03:40;2.13;;;1.93;;
16665;SDS011;8446;50.998;6.250;2023-04-15T13:06:07;2.60;;;2.00;;
16665;SDS011;8446;50.998;6.250;2023-04-15T13:08:33;4.00;;;2.30;;
16665;SDS011;8446;50.998;6.250;2023-04-15T13:11:00;2.70;;;2.33;;
16665;SDS011;8446;50.998;6.250;2023-04-15T13:13:27;2.30;;;2.10;;
16665;SDS011;8446;50.998;6.250;2023-04-15T13:15:57;2.30;;;2.10;;
16665;SDS011;8446;50.998;6.250;2023-04-15T13:18:24;2.30;;;2.00;;
16665;SDS011;8446;50.998;6.250;2023-04-15T13:20:51;3.70;;;2.47;;
16665;SDS011;8446;50.998;6.250;2023-04-15T13:23:20;1.80;;;1.70;;
16665;SDS011;8446;50.998;6.250;2023-04-15T13:25:47;4.17;;;2.60;;
16665;SDS011;8446;50.998;6.250;2023-04-15T13:28:13;2.57;;;2.37;;
16665;SDS011;8446;50.998;6.250;2023-04-15T13:30:40;3.30;;;2.97;;
16665;SDS011;8446;50.998;6.250;2023-04-15T13:33:09;2.90;;;2.53;;
16665;SDS011;8446;50.998;6.250;2023-04-15T13:35:37;3.07;;;2.70;;
16665;SDS011;8446;50.998;6.250;2023-04-15T13:38:05;2.90;;;2.40;;
16665;SDS011;8446;50.998;6.250;2023-04-15T13:40:31;3.23;;;2.20;;
16665;SDS011;8446;50.998;6.250;2023-04-15T13:42:58;4.20;;;2.70;;
16665;SDS011;8446;50.998;6.250;2023-04-15T13:45:26;5.27;;;2.30;;
16665;SDS011;8446;50.998;6.250;2023-04-15T13:47:52;3.30;;;2.50;;
16665;SDS011;8446;50.998;6.250;2023-04-15T13:50:22;5.00;;;2.73;;
16665;SDS011;8446;50.998;6.250;2023-04-15T13:52:49;6.20;;;1.67;;
16665;SDS011;8446;50.998;6.250;2023-04-15T13:55:16;2.60;;;2.00;;
16665;SDS011;8446;50.998;6.250;2023-04-15T13:57:43;4.13;;;1.80;;
16665;SDS011;8446;50.998;6.250;2023-04-15T14:00:10;4.00;;;2.00;;
16665;SDS011;8446;50.998;6.250;2023-04-15T14:02:38;3.13;;;1.97;;
16665;SDS011;8446;50.998;6.250;2023-04-15T14:05:05;6.00;;;2.40;;
16665;SDS011;8446;50.998;6.250;2023-04-15T14:07:34;3.00;;;2.03;;
16665;SDS011;8446;50.998;6.250;2023-04-15T14:10:01;2.90;;;1.70;;
16665;SDS011;8446;50.998;6.250;2023-04-15T14:12:28;4.90;;;2.27;;
16665;SDS011;8446;50.998;6.250;2023-04-15T14:14:54;2.33;;;2.00;;
16665;SDS011;8446;50.998;6.250;2023-04-15T14:17:21;2.37;;;2.17;;
16665;SDS011;8446;50.998;6.250;2023-04-15T14:19:48;3.67;;;2.30;;
16665;SDS011;8446;50.998;6.250;2023-04-15T14:22:15;3.57;;;2.20;;
16665;SDS011;8446;50.998;6.250;2023-04-15T14:24:44;4.17;;;2.03;;
16665;SDS011;8446;50.998;6.250;2023-04-15T14:27:12;2.17;;;1.93;;
16665;SDS011;8446;50.998;6.250;2023-04-15T14:29:39;7.40;;;2.90;;
16665;SDS011;8446;50.998;6.250;2023-04-15T14:32:06;2.23;;;1.90;;
16665;SDS011;8446;50.998;6.250;2023-04-15T14:34:33;3.87;;;2.30;;
16665;SDS011;8446;50.998;6.250;2023-04-15T14:36:59;6.10;;;2.70;;
16665;SDS011;8446;50.998;6.250;2023-04-15T14:39:27;4.53;;;2.10;;
16665;SDS011;8446;50.998;6.250;2023-04-15T14:41:55;2.50;;;2.30;;
16665;SDS011;8446;50.998;6.250;2023-04-15T14:44:22;3.70;;;2.77;;
16665;SDS011;8446;50.998;6.250;2023-04-15T14:46:49;2.30;;;1.90;;
16665;SDS011;8446;50.998;6.250;2023-04-15T14:49:16;4.83;;;2.27;;
16665;SDS011;8446;50.998;6.250;2023-04-15T14:51:43;2.30;;;1.90;;
16665;SDS011;8446;50.998;6.250;2023-04-15T14:54:10;1.60;;;1.50;;
16665;SDS011;8446;50.998;6.250;2023-04-15T14:56:37;4.03;;;1.83;;
16665;SDS011;8446;50.998;6.250;2023-04-15T14:59:05;2.00;;;1.77;;
16665;SDS011;8446;50.998;6.250;2023-04-15T15:01:32;1.60;;;1.50;;
16665;SDS011;8446;50.998;6.250;2023-04-15T15:03:59;5.93;;;1.87;;
16665;SDS011;8446;50.998;6.250;2023-04-15T15:06:26;4.90;;;1.87;;
16665;SDS011;8446;50.998;6.250;2023-04-15T15:08:52;2.10;;;1.70;;